sensor_id;sensor_type;location;lat;lon;timestamp;temperature;humidity
23609;DHT22;11982;50.810;4.442;2024-03-23T00:56:03;7.60;99.90
23609;DHT22;11982;50.810;4.442;2024-03-23T00:58:30;7.80;99.90
23609;DHT22;11982;50.810;4.442;2024-03-23T01:00:56;7.90;99.90
23609;DHT22;11982;50.810;4.442;2024-03-23T01:03:21;8.00;99.90
23609;DHT22;11982;50.810;4.442;2024-03-23T01:05:47;7.90;99.90
23609;DHT22;11982;50.810;4.442;2024-03-23T01:08:14;7.90;99.90
23609;DHT22;11982;50.810;4.442;2024-03-23T01:10:40;7.70;99.90
23609;DHT22;11982;50.810;4.442;2024-03-23T01:13:05;7.60;99.90
23609;DHT22;11982;50.810;4.442;2024-03-23T01:15:31;7.50;99.90
23609;DHT22;11982;50.810;4.442;2024-03-23T01:17:57;7.50;99.90
23609;DHT22;11982;50.810;4.442;2024-03-23T01:20:23;7.50;99.90
23609;DHT22;11982;50.810;4.442;2024-03-23T01:22:48;7.50;99.90
23609;DHT22;11982;50.810;4.442;2024-03-23T01:25:14;7.50;99.90
23609;DHT22;11982;50.810;4.442;2024-03-23T01:27:40;7.60;99.90
23609;DHT22;11982;50.810;4.442;2024-03-23T01:30:06;7.40;99.90
23609;DHT22;11982;50.810;4.442;2024-03-23T01:32:33;7.30;99.90
23609;DHT22;11982;50.810;4.442;2024-03-23T01:34:58;7.10;99.90
23609;DHT22;11982;50.810;4.442;2024-03-23T01:37:24;7.10;99.90
23609;DHT22;11982;50.810;4.442;2024-03-23T01:39:49;7.00;99.90
23609;DHT22;11982;50.810;4.442;2024-03-23T01:42:16;6.90;99.90
23609;DHT22;11982;50.810;4.442;2024-03-23T01:44:42;6.90;99.90
23609;DHT22;11982;50.810;4.442;2024-03-23T01:47:07;6.90;99.90
23609;DHT22;11982;50.810;4.442;2024-03-23T01:49:33;6.90;99.90
23609;DHT22;11982;50.810;4.442;2024-03-23T01:51:59;7.00;99.90
23609;DHT22;11982;50.810;4.442;2024-03-23T01:54:25;7.20;99.90
23609;DHT22;11982;50.810;4.442;2024-03-23T01:56:51;7.20;99.90
23609;DHT22;11982;50.810;4.442;2024-03-23T01:59:17;7.30;99.90
23609;DHT22;11982;50.810;4.442;2024-03-23T02:01:43;7.20;99.90
23609;DHT22;11982;50.810;4.442;2024-03-23T02:04:08;7.10;99.90
23609;DHT22;11982;50.810;4.442;2024-03-23T02:06:35;7.00;99.90
23609;DHT22;11982;50.810;4.442;2024-03-23T02:09:00;7.00;99.90
23609;DHT22;11982;50.810;4.442;2024-03-23T02:11:26;7.00;99.90
23609;DHT22;11982;50.810;4.442;2024-03-23T02:13:52;7.00;99.90
23609;DHT22;11982;50.810;4.442;2024-03-23T02:16:17;7.10;99.90
23609;DHT22;11982;50.810;4.442;2024-03-23T02:18:43;7.20;99.90
23609;DHT22;11982;50.810;4.442;2024-03-23T02:21:09;7.30;99.90
23609;DHT22;11982;50.810;4.442;2024-03-23T02:23:34;7.30;99.90
23609;DHT22;11982;50.810;4.442;2024-03-23T02:26:00;7.20;99.90
23609;DHT22;11982;50.810;4.442;2024-03-23T02:28:26;7.10;99.90
23609;DHT22;11982;50.810;4.442;2024-03-23T02:30:52;7.20;99.90
23609;DHT22;11982;50.810;4.442;2024-03-23T02:33:17;7.20;99.90
23609;DHT22;11982;50.810;4.442;2024-03-23T02:35:49;7.10;99.90
23609;DHT22;11982;50.810;4.442;2024-03-23T02:38:14;7.00;99.90
23609;DHT22;11982;50.810;4.442;2024-03-23T02:40:40;7.00;99.90
23609;DHT22;11982;50.810;4.442;2024-03-23T02:43:06;7.00;99.90
23609;DHT22;11982;50.810;4.442;2024-03-23T02:45:31;7.00;99.90
23609;DHT22;11982;50.810;4.442;2024-03-23T02:47:57;7.00;99.90
23609;DHT22;11982;50.810;4.442;2024-03-23T02:50:23;7.00;99.90
23609;DHT22;11982;50.810;4.442;2024-03-23T02:52:48;7.00;99.90
23609;DHT22;11982;50.810;4.442;2024-03-23T02:55:14;7.00;99.90
23609;DHT22;11982;50.810;4.442;2024-03-23T02:57:41;7.00;99.90
23609;DHT22;11982;50.810;4.442;2024-03-23T03:00:07;7.00;99.90
23609;DHT22;11982;50.810;4.442;2024-03-23T03:02:33;7.00;99.90
23609;DHT22;11982;50.810;4.442;2024-03-23T03:04:59;7.00;99.90
23609;DHT22;11982;50.810;4.442;2024-03-23T03:07:24;6.90;99.90
23609;DHT22;11982;50.810;4.442;2024-03-23T03:09:50;7.00;99.90
23609;DHT22;11982;50.810;4.442;2024-03-23T03:12:16;7.00;99.90
23609;DHT22;11982;50.810;4.442;2024-03-23T03:14:42;7.00;99.90
23609;DHT22;11982;50.810;4.442;2024-03-23T03:17:08;7.00;99.90
23609;DHT22;11982;50.810;4.442;2024-03-23T03:19:34;6.90;99.90
23609;DHT22;11982;50.810;4.442;2024-03-23T03:22:00;7.00;99.90
23609;DHT22;11982;50.810;4.442;2024-03-23T03:24:25;6.90;99.90
23609;DHT22;11982;50.810;4.442;2024-03-23T03:26:51;6.90;99.90
23609;DHT22;11982;50.810;4.442;2024-03-23T03:29:17;7.00;99.90
23609;DHT22;11982;50.810;4.442;2024-03-23T03:31:43;7.00;99.90
23609;DHT22;11982;50.810;4.442;2024-03-23T03:34:09;6.90;99.90
23609;DHT22;11982;50.810;4.442;2024-03-23T03:36:35;6.80;99.90
23609;DHT22;11982;50.810;4.442;2024-03-23T03:39:00;6.80;99.90
23609;DHT22;11982;50.810;4.442;2024-03-23T03:41:28;6.80;99.90
23609;DHT22;11982;50.810;4.442;2024-03-23T03:43:54;6.70;99.90
23609;DHT22;11982;50.810;4.442;2024-03-23T03:46:20;6.70;99.90
23609;DHT22;11982;50.810;4.442;2024-03-23T03:48:46;6.70;99.90
23609;DHT22;11982;50.810;4.442;2024-03-23T03:51:13;6.70;99.90
23609;DHT22;11982;50.810;4.442;2024-03-23T03:53:39;6.70;99.90
23609;DHT22;11982;50.810;4.442;2024-03-23T03:56:05;6.60;99.90
23609;DHT22;11982;50.810;4.442;2024-03-23T03:58:31;6.50;99.90
23609;DHT22;11982;50.810;4.442;2024-03-23T04:00:56;6.40;99.90
23609;DHT22;11982;50.810;4.442;2024-03-23T04:03:22;6.40;99.90
23609;DHT22;11982;50.810;4.442;2024-03-23T04:05:54;6.50;99.90
23609;DHT22;11982;50.810;4.442;2024-03-23T04:08:20;6.50;99.90
23609;DHT22;11982;50.810;4.442;2024-03-23T04:10:46;6.50;99.90
23609;DHT22;11982;50.810;4.442;2024-03-23T04:13:12;6.60;99.90
23609;DHT22;11982;50.810;4.442;2024-03-23T04:15:38;6.60;99.90
23609;DHT22;11982;50.810;4.442;2024-03-23T04:18:04;6.50;99.90
23609;DHT22;11982;50.810;4.442;2024-03-23T04:20:30;6.50;99.90
23609;DHT22;11982;50.810;4.442;2024-03-23T04:22:55;6.50;99.90
23609;DHT22;11982;50.810;4.442;2024-03-23T04:25:21;6.50;99.90
23609;DHT22;11982;50.810;4.442;2024-03-23T04:27:47;6.50;99.90
23609;DHT22;11982;50.810;4.442;2024-03-23T04:30:12;6.50;99.90
23609;DHT22;11982;50.810;4.442;2024-03-23T04:32:38;6.50;99.90
23609;DHT22;11982;50.810;4.442;2024-03-23T04:35:04;6.40;99.90
23609;DHT22;11982;50.810;4.442;2024-03-23T04:37:37;6.40;99.90
23609;DHT22;11982;50.810;4.442;2024-03-23T04:40:03;6.40;99.90
23609;DHT22;11982;50.810;4.442;2024-03-23T04:42:29;6.40;99.90
23609;DHT22;11982;50.810;4.442;2024-03-23T04:44:55;6.40;99.90
23609;DHT22;11982;50.810;4.442;2024-03-23T04:47:21;6.40;99.90
23609;DHT22;11982;50.810;4.442;2024-03-23T04:49:47;6.50;99.90
23609;DHT22;11982;50.810;4.442;2024-03-23T04:52:12;6.50;99.90
23609;DHT22;11982;50.810;4.442;2024-03-23T04:54:38;6.40;99.90
23609;DHT22;11982;50.810;4.442;2024-03-23T04:57:06;6.50;99.90
23609;DHT22;11982;50.810;4.442;2024-03-23T04:59:31;6.40;99.90
23609;DHT22;11982;50.810;4.442;2024-03-23T05:01:57;6.40;99.90
23609;DHT22;11982;50.810;4.442;2024-03-23T05:04:23;6.30;99.90
23609;DHT22;11982;50.810;4.442;2024-03-23T05:06:48;6.20;99.90
23609;DHT22;11982;50.810;4.442;2024-03-23T05:09:14;6.00;99.90
23609;DHT22;11982;50.810;4.442;2024-03-23T05:11:41;6.00;99.90
23609;DHT22;11982;50.810;4.442;2024-03-23T05:14:14;5.90;99.90
23609;DHT22;11982;50.810;4.442;2024-03-23T05:16:40;5.90;99.90
23609;DHT22;11982;50.810;4.442;2024-03-23T05:19:06;5.90;99.90
23609;DHT22;11982;50.810;4.442;2024-03-23T05:21:31;5.90;99.90
23609;DHT22;11982;50.810;4.442;2024-03-23T05:23:57;5.90;99.90
23609;DHT22;11982;50.810;4.442;2024-03-23T05:26:23;5.90;99.90
23609;DHT22;11982;50.810;4.442;2024-03-23T05:28:49;5.90;99.90
23609;DHT22;11982;50.810;4.442;2024-03-23T05:31:28;6.00;99.90
23609;DHT22;11982;50.810;4.442;2024-03-23T05:33:54;6.00;99.90
23609;DHT22;11982;50.810;4.442;2024-03-23T05:36:20;6.00;99.90
23609;DHT22;11982;50.810;4.442;2024-03-23T05:38:46;6.00;99.90
23609;DHT22;11982;50.810;4.442;2024-03-23T05:41:12;6.00;99.90
23609;DHT22;11982;50.810;4.442;2024-03-23T05:43:38;6.00;99.90
23609;DHT22;11982;50.810;4.442;2024-03-23T05:46:03;6.00;99.90
23609;DHT22;11982;50.810;4.442;2024-03-23T05:48:33;6.00;99.90
23609;DHT22;11982;50.810;4.442;2024-03-23T05:50:59;6.00;99.90
23609;DHT22;11982;50.810;4.442;2024-03-23T05:53:24;6.10;99.90
23609;DHT22;11982;50.810;4.442;2024-03-23T05:55:51;6.00;99.90
23609;DHT22;11982;50.810;4.442;2024-03-23T05:58:19;6.00;99.90
23609;DHT22;11982;50.810;4.442;2024-03-23T06:00:45;6.00;99.90
23609;DHT22;11982;50.810;4.442;2024-03-23T06:03:11;5.90;99.90
23609;DHT22;11982;50.810;4.442;2024-03-23T06:05:37;5.90;99.90
23609;DHT22;11982;50.810;4.442;2024-03-23T06:08:03;5.90;99.90
23609;DHT22;11982;50.810;4.442;2024-03-23T06:10:29;5.90;99.90
23609;DHT22;11982;50.810;4.442;2024-03-23T06:12:55;5.90;99.90
23609;DHT22;11982;50.810;4.442;2024-03-23T06:15:21;5.90;99.90
23609;DHT22;11982;50.810;4.442;2024-03-23T06:17:48;6.10;99.90
23609;DHT22;11982;50.810;4.442;2024-03-23T06:20:14;6.10;99.90
23609;DHT22;11982;50.810;4.442;2024-03-23T06:22:39;6.20;99.90
23609;DHT22;11982;50.810;4.442;2024-03-23T06:25:06;6.20;99.90
23609;DHT22;11982;50.810;4.442;2024-03-23T06:27:32;6.20;99.90
23609;DHT22;11982;50.810;4.442;2024-03-23T06:30:01;6.20;99.90
23609;DHT22;11982;50.810;4.442;2024-03-23T06:32:30;6.20;99.90
23609;DHT22;11982;50.810;4.442;2024-03-23T06:34:55;6.30;99.90
23609;DHT22;11982;50.810;4.442;2024-03-23T06:37:21;6.30;99.90
23609;DHT22;11982;50.810;4.442;2024-03-23T06:39:47;6.30;99.90
23609;DHT22;11982;50.810;4.442;2024-03-23T06:42:13;6.30;99.90
23609;DHT22;11982;50.810;4.442;2024-03-23T06:44:39;6.40;99.90
23609;DHT22;11982;50.810;4.442;2024-03-23T06:47:05;6.30;99.90
23609;DHT22;11982;50.810;4.442;2024-03-23T06:49:31;6.40;99.90
23609;DHT22;11982;50.810;4.442;2024-03-23T06:51:56;6.40;99.90
23609;DHT22;11982;50.810;4.442;2024-03-23T06:54:23;6.40;99.90
23609;DHT22;11982;50.810;4.442;2024-03-23T06:56:49;6.40;99.90
23609;DHT22;11982;50.810;4.442;2024-03-23T06:59:15;6.40;99.90
23609;DHT22;11982;50.810;4.442;2024-03-23T07:01:41;6.40;99.90
23609;DHT22;11982;50.810;4.442;2024-03-23T07:04:07;6.50;99.90
23609;DHT22;11982;50.810;4.442;2024-03-23T07:06:33;6.60;99.90
23609;DHT22;11982;50.810;4.442;2024-03-23T07:08:59;6.70;99.90
23609;DHT22;11982;50.810;4.442;2024-03-23T07:11:25;6.80;99.90
23609;DHT22;11982;50.810;4.442;2024-03-23T07:13:53;6.80;99.90
23609;DHT22;11982;50.810;4.442;2024-03-23T07:16:22;6.70;99.90
23609;DHT22;11982;50.810;4.442;2024-03-23T07:18:50;6.60;99.90
23609;DHT22;11982;50.810;4.442;2024-03-23T07:21:15;6.40;99.90
23609;DHT22;11982;50.810;4.442;2024-03-23T07:23:44;6.10;99.90
23609;DHT22;11982;50.810;4.442;2024-03-23T07:26:10;6.10;99.90
23609;DHT22;11982;50.810;4.442;2024-03-23T07:28:37;6.00;99.90
23609;DHT22;11982;50.810;4.442;2024-03-23T07:31:08;5.90;99.90
23609;DHT22;11982;50.810;4.442;2024-03-23T07:33:41;5.80;99.90
23609;DHT22;11982;50.810;4.442;2024-03-23T07:36:07;5.80;99.90
23609;DHT22;11982;50.810;4.442;2024-03-23T07:38:33;5.80;99.90
23609;DHT22;11982;50.810;4.442;2024-03-23T07:41:12;5.80;99.90
23609;DHT22;11982;50.810;4.442;2024-03-23T07:43:40;6.00;99.90
23609;DHT22;11982;50.810;4.442;2024-03-23T07:46:06;6.10;99.90
23609;DHT22;11982;50.810;4.442;2024-03-23T07:48:32;6.10;99.90
23609;DHT22;11982;50.810;4.442;2024-03-23T07:51:16;6.10;99.90
23609;DHT22;11982;50.810;4.442;2024-03-23T07:53:44;6.20;99.90
23609;DHT22;11982;50.810;4.442;2024-03-23T07:56:11;6.20;99.90
23609;DHT22;11982;50.810;4.442;2024-03-23T07:58:37;6.30;99.90
23609;DHT22;11982;50.810;4.442;2024-03-23T08:01:08;6.40;99.90
23609;DHT22;11982;50.810;4.442;2024-03-23T08:03:37;6.40;99.90
23609;DHT22;11982;50.810;4.442;2024-03-23T08:06:19;6.50;99.90
23609;DHT22;11982;50.810;4.442;2024-03-23T08:08:47;6.50;99.90
23609;DHT22;11982;50.810;4.442;2024-03-23T08:11:13;6.60;99.90
23609;DHT22;11982;50.810;4.442;2024-03-23T08:13:40;6.80;99.90
23609;DHT22;11982;50.810;4.442;2024-03-23T08:16:06;7.00;99.90
23609;DHT22;11982;50.810;4.442;2024-03-23T08:18:34;7.10;99.90
23609;DHT22;11982;50.810;4.442;2024-03-23T08:21:01;7.30;99.90
23609;DHT22;11982;50.810;4.442;2024-03-23T08:23:28;7.30;99.90
23609;DHT22;11982;50.810;4.442;2024-03-23T08:26:05;7.20;99.90
23609;DHT22;11982;50.810;4.442;2024-03-23T08:28:31;7.10;99.90
23609;DHT22;11982;50.810;4.442;2024-03-23T08:31:00;7.00;99.90
23609;DHT22;11982;50.810;4.442;2024-03-23T08:33:26;7.00;99.90
23609;DHT22;11982;50.810;4.442;2024-03-23T08:35:59;7.30;99.90
23609;DHT22;11982;50.810;4.442;2024-03-23T08:38:26;7.40;99.90
23609;DHT22;11982;50.810;4.442;2024-03-23T08:43:24;7.40;99.90
23609;DHT22;11982;50.810;4.442;2024-03-23T08:45:50;7.50;99.90
23609;DHT22;11982;50.810;4.442;2024-03-23T08:48:17;7.60;99.90
23609;DHT22;11982;50.810;4.442;2024-03-23T08:50:43;7.50;99.90
23609;DHT22;11982;50.810;4.442;2024-03-23T08:53:09;7.50;99.90
23609;DHT22;11982;50.810;4.442;2024-03-23T08:55:35;7.60;99.90
23609;DHT22;11982;50.810;4.442;2024-03-23T08:58:01;7.70;99.90
23609;DHT22;11982;50.810;4.442;2024-03-23T09:00:27;7.80;99.90
23609;DHT22;11982;50.810;4.442;2024-03-23T09:02:52;7.90;99.90
23609;DHT22;11982;50.810;4.442;2024-03-23T09:05:19;7.70;99.90
23609;DHT22;11982;50.810;4.442;2024-03-23T09:07:44;7.90;99.90
23609;DHT22;11982;50.810;4.442;2024-03-23T09:10:10;7.80;99.90
23609;DHT22;11982;50.810;4.442;2024-03-23T09:12:36;7.90;99.90
23609;DHT22;11982;50.810;4.442;2024-03-23T09:15:01;8.30;99.90
23609;DHT22;11982;50.810;4.442;2024-03-23T09:17:27;8.30;99.90
23609;DHT22;11982;50.810;4.442;2024-03-23T09:19:53;8.00;99.90
23609;DHT22;11982;50.810;4.442;2024-03-23T09:22:18;7.90;99.90
23609;DHT22;11982;50.810;4.442;2024-03-23T09:24:44;7.90;99.90
23609;DHT22;11982;50.810;4.442;2024-03-23T09:27:10;8.00;99.90
23609;DHT22;11982;50.810;4.442;2024-03-23T09:29:35;8.20;99.90
23609;DHT22;11982;50.810;4.442;2024-03-23T09:32:01;8.10;99.90
23609;DHT22;11982;50.810;4.442;2024-03-23T09:34:27;8.30;99.90
23609;DHT22;11982;50.810;4.442;2024-03-23T09:36:52;8.40;99.90
23609;DHT22;11982;50.810;4.442;2024-03-23T09:39:18;8.20;99.90
23609;DHT22;11982;50.810;4.442;2024-03-23T09:41:45;8.30;99.90
23609;DHT22;11982;50.810;4.442;2024-03-23T09:44:11;8.50;99.90
23609;DHT22;11982;50.810;4.442;2024-03-23T09:46:37;8.60;99.90
23609;DHT22;11982;50.810;4.442;2024-03-23T09:49:06;8.60;99.90
23609;DHT22;11982;50.810;4.442;2024-03-23T09:51:36;8.40;99.90
23609;DHT22;11982;50.810;4.442;2024-03-23T09:54:02;8.30;99.90
23609;DHT22;11982;50.810;4.442;2024-03-23T09:56:28;8.20;99.90
23609;DHT22;11982;50.810;4.442;2024-03-23T09:59:01;8.40;99.90
23609;DHT22;11982;50.810;4.442;2024-03-23T10:01:32;8.60;99.90
23609;DHT22;11982;50.810;4.442;2024-03-23T10:03:57;8.80;99.90
23609;DHT22;11982;50.810;4.442;2024-03-23T10:06:23;9.10;99.90
23609;DHT22;11982;50.810;4.442;2024-03-23T10:08:52;9.10;99.90
23609;DHT22;11982;50.810;4.442;2024-03-23T10:11:21;9.00;99.90
23609;DHT22;11982;50.810;4.442;2024-03-23T10:13:47;9.00;99.90
23609;DHT22;11982;50.810;4.442;2024-03-23T10:16:21;9.00;99.90
23609;DHT22;11982;50.810;4.442;2024-03-23T10:18:47;9.10;99.90
23609;DHT22;11982;50.810;4.442;2024-03-23T10:21:15;8.90;99.90
23609;DHT22;11982;50.810;4.442;2024-03-23T10:23:42;8.80;99.90
23609;DHT22;11982;50.810;4.442;2024-03-23T10:26:22;8.50;99.90
23609;DHT22;11982;50.810;4.442;2024-03-23T10:29:01;8.30;99.90
23609;DHT22;11982;50.810;4.442;2024-03-23T10:31:28;8.30;99.90
23609;DHT22;11982;50.810;4.442;2024-03-23T10:33:54;8.20;99.90
23609;DHT22;11982;50.810;4.442;2024-03-23T10:36:24;8.30;99.90
23609;DHT22;11982;50.810;4.442;2024-03-23T10:38:51;8.70;99.90
23609;DHT22;11982;50.810;4.442;2024-03-23T10:41:18;8.90;99.90
23609;DHT22;11982;50.810;4.442;2024-03-23T10:43:48;8.70;99.90
23609;DHT22;11982;50.810;4.442;2024-03-23T10:46:15;8.70;99.90
23609;DHT22;11982;50.810;4.442;2024-03-23T10:48:41;8.70;99.90
23609;DHT22;11982;50.810;4.442;2024-03-23T10:51:08;8.70;99.90
23609;DHT22;11982;50.810;4.442;2024-03-23T10:53:35;8.80;99.90
23609;DHT22;11982;50.810;4.442;2024-03-23T10:56:02;8.90;99.90
23609;DHT22;11982;50.810;4.442;2024-03-23T10:58:40;9.00;99.90
23609;DHT22;11982;50.810;4.442;2024-03-23T11:01:06;9.20;99.90
23609;DHT22;11982;50.810;4.442;2024-03-23T11:03:39;9.30;99.90
23609;DHT22;11982;50.810;4.442;2024-03-23T11:06:09;9.60;95.70
23609;DHT22;11982;50.810;4.442;2024-03-23T11:08:40;9.30;93.50
23609;DHT22;11982;50.810;4.442;2024-03-23T11:11:20;9.40;96.90
23609;DHT22;11982;50.810;4.442;2024-03-23T11:13:51;9.40;93.80
23609;DHT22;11982;50.810;4.442;2024-03-23T11:16:22;9.50;98.60
23609;DHT22;11982;50.810;4.442;2024-03-23T11:18:49;9.70;96.60
23609;DHT22;11982;50.810;4.442;2024-03-23T11:24:19;9.00;79.80
23609;DHT22;11982;50.810;4.442;2024-03-23T11:26:46;8.90;87.80
23609;DHT22;11982;50.810;4.442;2024-03-23T11:29:14;8.90;91.50
23609;DHT22;11982;50.810;4.442;2024-03-23T11:31:47;9.00;90.20
23609;DHT22;11982;50.810;4.442;2024-03-23T11:34:15;9.20;95.80
23609;DHT22;11982;50.810;4.442;2024-03-23T11:36:42;9.40;85.40
23609;DHT22;11982;50.810;4.442;2024-03-23T11:39:18;9.40;83.20
23609;DHT22;11982;50.810;4.442;2024-03-23T11:41:51;9.40;83.80
23609;DHT22;11982;50.810;4.442;2024-03-23T11:44:21;9.10;74.90
23609;DHT22;11982;50.810;4.442;2024-03-23T11:46:50;9.00;83.80
23609;DHT22;11982;50.810;4.442;2024-03-23T11:49:28;9.20;92.40
23609;DHT22;11982;50.810;4.442;2024-03-23T11:51:55;9.00;81.00
23609;DHT22;11982;50.810;4.442;2024-03-23T11:54:25;8.80;88.30
23609;DHT22;11982;50.810;4.442;2024-03-23T11:57:00;8.70;94.30
23609;DHT22;11982;50.810;4.442;2024-03-23T11:59:35;8.90;72.20
23609;DHT22;11982;50.810;4.442;2024-03-23T12:02:11;9.00;71.30
23609;DHT22;11982;50.810;4.442;2024-03-23T12:04:40;8.90;72.00
23609;DHT22;11982;50.810;4.442;2024-03-23T12:07:19;8.80;73.60
23609;DHT22;11982;50.810;4.442;2024-03-23T12:10:02;8.60;85.70
23609;DHT22;11982;50.810;4.442;2024-03-23T12:12:28;8.60;91.90
23609;DHT22;11982;50.810;4.442;2024-03-23T12:15:07;8.50;98.10
23609;DHT22;11982;50.810;4.442;2024-03-23T12:17:35;8.60;99.90
23609;DHT22;11982;50.810;4.442;2024-03-23T12:20:01;8.50;99.90
23609;DHT22;11982;50.810;4.442;2024-03-23T12:22:27;8.50;99.90
23609;DHT22;11982;50.810;4.442;2024-03-23T12:24:55;8.60;99.90
23609;DHT22;11982;50.810;4.442;2024-03-23T12:27:20;8.70;99.90
23609;DHT22;11982;50.810;4.442;2024-03-23T12:29:46;8.70;99.90
23609;DHT22;11982;50.810;4.442;2024-03-23T12:32:15;8.50;99.90
23609;DHT22;11982;50.810;4.442;2024-03-23T12:34:41;8.20;99.90
23609;DHT22;11982;50.810;4.442;2024-03-23T12:37:07;7.90;99.90
23609;DHT22;11982;50.810;4.442;2024-03-23T12:39:33;7.80;99.90
23609;DHT22;11982;50.810;4.442;2024-03-23T12:42:01;7.70;99.90
23609;DHT22;11982;50.810;4.442;2024-03-23T12:44:28;7.60;99.90
23609;DHT22;11982;50.810;4.442;2024-03-23T12:46:54;7.70;99.90
23609;DHT22;11982;50.810;4.442;2024-03-23T12:49:19;7.90;99.90
23609;DHT22;11982;50.810;4.442;2024-03-23T12:51:54;8.20;99.90
23609;DHT22;11982;50.810;4.442;2024-03-23T12:54:21;8.30;99.90
23609;DHT22;11982;50.810;4.442;2024-03-23T12:56:47;8.60;99.90
23609;DHT22;11982;50.810;4.442;2024-03-23T12:59:13;8.70;99.90
23609;DHT22;11982;50.810;4.442;2024-03-23T13:01:39;8.90;99.90
23609;DHT22;11982;50.810;4.442;2024-03-23T13:04:05;9.20;99.90
23609;DHT22;11982;50.810;4.442;2024-03-23T13:06:31;9.30;94.20
23609;DHT22;11982;50.810;4.442;2024-03-23T13:09:03;9.30;98.30
23609;DHT22;11982;50.810;4.442;2024-03-23T13:11:29;9.60;94.60
23609;DHT22;11982;50.810;4.442;2024-03-23T13:13:55;9.70;89.50
23609;DHT22;11982;50.810;4.442;2024-03-23T13:16:21;9.60;84.50
23609;DHT22;11982;50.810;4.442;2024-03-23T13:18:47;9.90;95.30
23609;DHT22;11982;50.810;4.442;2024-03-23T13:21:12;10.20;99.90
23609;DHT22;11982;50.810;4.442;2024-03-23T13:23:38;10.10;99.90
23609;DHT22;11982;50.810;4.442;2024-03-23T13:26:07;10.20;99.90
23609;DHT22;11982;50.810;4.442;2024-03-23T13:28:33;10.00;99.90
23609;DHT22;11982;50.810;4.442;2024-03-23T13:30:59;10.10;99.90
23609;DHT22;11982;50.810;4.442;2024-03-23T13:33:31;10.20;99.90
23609;DHT22;11982;50.810;4.442;2024-03-23T13:35:58;10.40;99.90
23609;DHT22;11982;50.810;4.442;2024-03-23T13:38:24;10.60;97.70
23609;DHT22;11982;50.810;4.442;2024-03-23T13:40:57;10.60;99.60
23609;DHT22;11982;50.810;4.442;2024-03-23T13:43:24;10.70;98.00
23609;DHT22;11982;50.810;4.442;2024-03-23T13:45:55;10.70;97.50
23609;DHT22;11982;50.810;4.442;2024-03-23T13:48:22;11.00;98.00
23609;DHT22;11982;50.810;4.442;2024-03-23T13:50:57;10.70;97.30
23609;DHT22;11982;50.810;4.442;2024-03-23T13:53:23;10.50;98.60
23609;DHT22;11982;50.810;4.442;2024-03-23T13:55:49;10.40;97.40
23609;DHT22;11982;50.810;4.442;2024-03-23T13:58:15;10.50;98.10
23609;DHT22;11982;50.810;4.442;2024-03-23T14:00:41;10.50;97.80
23609;DHT22;11982;50.810;4.442;2024-03-23T14:03:13;10.50;99.50
23609;DHT22;11982;50.810;4.442;2024-03-23T14:05:40;10.50;98.40
23609;DHT22;11982;50.810;4.442;2024-03-23T14:08:09;10.60;98.80
23609;DHT22;11982;50.810;4.442;2024-03-23T14:10:35;10.80;99.90
23609;DHT22;11982;50.810;4.442;2024-03-23T14:13:04;10.60;98.90
23609;DHT22;11982;50.810;4.442;2024-03-23T14:15:30;10.40;97.10
23609;DHT22;11982;50.810;4.442;2024-03-23T14:17:56;10.30;98.80
23609;DHT22;11982;50.810;4.442;2024-03-23T14:20:22;10.30;99.50
23609;DHT22;11982;50.810;4.442;2024-03-23T14:22:49;10.50;99.00
23609;DHT22;11982;50.810;4.442;2024-03-23T14:25:15;10.50;99.30
23609;DHT22;11982;50.810;4.442;2024-03-23T14:27:42;10.50;97.10
23609;DHT22;11982;50.810;4.442;2024-03-23T14:30:09;10.20;98.30
23609;DHT22;11982;50.810;4.442;2024-03-23T14:32:35;9.90;99.50
23609;DHT22;11982;50.810;4.442;2024-03-23T14:35:01;9.70;99.90
23609;DHT22;11982;50.810;4.442;2024-03-23T14:37:27;9.90;99.90
23609;DHT22;11982;50.810;4.442;2024-03-23T14:39:58;10.00;97.90
23609;DHT22;11982;50.810;4.442;2024-03-23T14:42:24;9.90;99.40
23609;DHT22;11982;50.810;4.442;2024-03-23T14:44:50;9.70;98.20
23609;DHT22;11982;50.810;4.442;2024-03-23T14:47:17;9.70;99.90
23609;DHT22;11982;50.810;4.442;2024-03-23T14:49:46;9.80;99.10
23609;DHT22;11982;50.810;4.442;2024-03-23T14:52:16;9.80;99.80
23609;DHT22;11982;50.810;4.442;2024-03-23T14:54:43;9.90;99.60
23609;DHT22;11982;50.810;4.442;2024-03-23T14:57:08;9.90;98.30
23609;DHT22;11982;50.810;4.442;2024-03-23T14:59:35;9.90;99.90
23609;DHT22;11982;50.810;4.442;2024-03-23T15:02:01;9.90;99.90
23609;DHT22;11982;50.810;4.442;2024-03-23T15:04:27;10.00;99.90
23609;DHT22;11982;50.810;4.442;2024-03-23T15:06:53;10.10;99.90
23609;DHT22;11982;50.810;4.442;2024-03-23T15:09:18;10.00;99.90
23609;DHT22;11982;50.810;4.442;2024-03-23T15:11:44;10.20;99.90
23609;DHT22;11982;50.810;4.442;2024-03-23T15:14:10;10.30;99.90
23609;DHT22;11982;50.810;4.442;2024-03-23T15:16:36;10.30;99.90
23609;DHT22;11982;50.810;4.442;2024-03-23T15:19:02;10.30;99.90
23609;DHT22;11982;50.810;4.442;2024-03-23T15:21:28;10.40;99.90
23609;DHT22;11982;50.810;4.442;2024-03-23T15:23:54;10.50;99.60
23609;DHT22;11982;50.810;4.442;2024-03-23T15:26:19;10.20;98.00
23609;DHT22;11982;50.810;4.442;2024-03-23T15:28:49;10.10;98.50
23609;DHT22;11982;50.810;4.442;2024-03-23T15:31:24;10.10;97.10
23609;DHT22;11982;50.810;4.442;2024-03-23T15:33:50;9.90;98.00
23609;DHT22;11982;50.810;4.442;2024-03-23T15:36:16;9.70;97.60
23609;DHT22;11982;50.810;4.442;2024-03-23T15:38:42;9.70;99.90
23609;DHT22;11982;50.810;4.442;2024-03-23T15:41:09;9.70;98.70
23609;DHT22;11982;50.810;4.442;2024-03-23T15:43:35;9.60;99.90
23609;DHT22;11982;50.810;4.442;2024-03-23T15:46:02;9.50;99.10
23609;DHT22;11982;50.810;4.442;2024-03-23T15:48:29;9.60;99.90
23609;DHT22;11982;50.810;4.442;2024-03-23T15:50:57;9.80;99.90
23609;DHT22;11982;50.810;4.442;2024-03-23T15:53:24;10.10;99.50
23609;DHT22;11982;50.810;4.442;2024-03-23T15:56:03;10.40;99.90
23609;DHT22;11982;50.810;4.442;2024-03-23T15:58:31;10.50;96.40
23609;DHT22;11982;50.810;4.442;2024-03-23T16:01:06;10.60;96.60
23609;DHT22;11982;50.810;4.442;2024-03-23T16:03:34;10.60;94.30
23609;DHT22;11982;50.810;4.442;2024-03-23T16:06:02;10.50;94.10
23609;DHT22;11982;50.810;4.442;2024-03-23T16:08:28;10.60;91.70
23609;DHT22;11982;50.810;4.442;2024-03-23T16:10:58;10.50;90.60
23609;DHT22;11982;50.810;4.442;2024-03-23T16:13:24;10.40;85.90
23609;DHT22;11982;50.810;4.442;2024-03-23T16:16:01;10.40;86.10
23609;DHT22;11982;50.810;4.442;2024-03-23T16:18:34;10.50;88.50
23609;DHT22;11982;50.810;4.442;2024-03-23T16:21:04;10.40;84.60
23609;DHT22;11982;50.810;4.442;2024-03-23T16:23:33;10.40;84.20
23609;DHT22;11982;50.810;4.442;2024-03-23T16:26:00;10.30;82.30
23609;DHT22;11982;50.810;4.442;2024-03-23T16:28:27;10.40;86.10
23609;DHT22;11982;50.810;4.442;2024-03-23T16:30:57;10.40;85.40
23609;DHT22;11982;50.810;4.442;2024-03-23T16:33:23;10.20;85.30
23609;DHT22;11982;50.810;4.442;2024-03-23T16:36:06;10.00;84.50
23609;DHT22;11982;50.810;4.442;2024-03-23T16:38:36;9.90;88.00
23609;DHT22;11982;50.810;4.442;2024-03-23T16:41:10;9.80;87.40
23609;DHT22;11982;50.810;4.442;2024-03-23T16:43:38;9.80;88.60
23609;DHT22;11982;50.810;4.442;2024-03-23T16:46:05;9.70;87.00